map of KOCQ home
Great Circle Mapper logo
KOCQ - Airport
Location
City:  Oconto, Wisconsin, United States
Name:J. Douglas Bake Memorial. Airport
ICAO:KOCQ
FAA:OCQ

Details
Type:Airport (Airfield)
Use:Public/Civil
Latitude:4452'27"N (44.874056)
Longitude:8754'35"W (-87.909769)
Datum:WGS 1984
Elevation:604 ft (184 m)
Runways:2
Longest:3198 × 75 ft (975 × 23 m), paved

Time
Time Zone:UTC-6 (DST-5)
Local Time:

Weather
METAR:KOCQ 210935Z AUTO 03006KT 4SM SCT005 BKN012 OVC037 13/13 A2964 RMK AO1 P0027 T01260126

Related Locations
Nearby:
Farthest:MGV: 11002 mi / 17706 km
Margaret River, WA, AU

Find:

   beyond  
but within

Other Information
Maps:
NOTAMs:
Links:
Sources:

  
flag of United States
flag of Wisconsin
  

Sectional Chart

Flight Planning
at skyvector.com

Satellite Image

Google Maps Satellite View

 

Copyright © 2004-2014 Karl L. Swartz. All rights reserved.
The Great Circle Mapper name and logo are trademarks of the Great Circle Mapper.
All other trademarks mentioned herein belong to their respective owners.
Please see credits for attibutions and further copyright information.

  Follow gcmap on Facebook Follow gcmap on Twitter

hCard Microformat

Geo Microformat